createdAt,value
2023-05-07T00:01:29.393Z,3.00
2023-05-07T00:03:57.898Z,3.10
2023-05-07T00:06:30.093Z,2.70
2023-05-07T00:08:59.551Z,2.90
2023-05-07T00:11:28.124Z,2.90
2023-05-07T00:13:56.765Z,3.07
2023-05-07T00:16:25.206Z,2.70
2023-05-07T00:18:55.213Z,2.73
2023-05-07T00:21:23.811Z,2.90
2023-05-07T00:23:53.728Z,3.03
2023-05-07T00:26:22.119Z,2.90
2023-05-07T00:28:50.447Z,3.10
2023-05-07T00:31:18.842Z,3.00
2023-05-07T00:33:47.691Z,2.90
2023-05-07T00:36:16.059Z,3.27
2023-05-07T00:38:44.461Z,2.80
2023-05-07T00:41:14.320Z,3.23
2023-05-07T00:43:42.675Z,3.10
2023-05-07T00:46:11.281Z,3.10
2023-05-07T00:48:39.715Z,3.23
2023-05-07T00:51:08.308Z,2.93
2023-05-07T00:53:37.443Z,3.13
2023-05-07T00:56:07.510Z,3.03
2023-05-07T00:58:37.815Z,3.07
2023-05-07T01:01:06.479Z,3.00
2023-05-07T01:03:34.947Z,3.00
2023-05-07T01:06:05.083Z,3.27
2023-05-07T01:08:36.252Z,3.23
2023-05-07T01:11:05.439Z,3.17
2023-05-07T01:13:34.260Z,3.13
2023-05-07T01:16:04.476Z,3.40
2023-05-07T01:18:33.673Z,3.50
2023-05-07T01:21:04.314Z,3.10
2023-05-07T01:23:36.765Z,3.13
2023-05-07T01:26:05.183Z,2.70
2023-05-07T01:28:33.698Z,3.10
2023-05-07T01:31:05.310Z,2.93
2023-05-07T01:33:37.352Z,3.60
2023-05-07T01:36:07.809Z,3.20
2023-05-07T01:38:38.666Z,2.90
2023-05-07T01:41:07.463Z,2.70
2023-05-07T01:43:36.264Z,3.20
2023-05-07T01:46:06.119Z,3.00
2023-05-07T01:48:35.658Z,3.07
2023-05-07T01:51:04.673Z,3.00
2023-05-07T01:53:39.831Z,2.80
2023-05-07T01:56:08.961Z,3.20
2023-05-07T01:58:37.311Z,3.60
2023-05-07T02:01:05.915Z,3.33
2023-05-07T02:03:34.362Z,3.03
2023-05-07T02:06:02.691Z,3.00
2023-05-07T02:08:32.132Z,4.00
2023-05-07T02:11:01.823Z,2.93
2023-05-07T02:13:32.724Z,3.37
2023-05-07T02:16:01.213Z,2.67
2023-05-07T02:18:29.753Z,2.70
2023-05-07T02:20:58.081Z,2.90
2023-05-07T02:23:26.442Z,2.70
2023-05-07T02:25:54.758Z,2.60
2023-05-07T02:28:24.838Z,3.30
2023-05-07T02:30:53.156Z,2.53
2023-05-07T02:33:21.487Z,2.53
2023-05-07T02:35:49.824Z,3.20
2023-05-07T02:38:18.225Z,2.77
2023-05-07T02:40:46.594Z,3.40
2023-05-07T02:43:15.039Z,2.90
2023-05-07T02:45:45.547Z,2.60
2023-05-07T02:48:13.909Z,2.50
2023-05-07T02:50:42.357Z,2.70
2023-05-07T02:53:10.784Z,2.57
2023-05-07T02:55:39.207Z,2.70
2023-05-07T02:58:07.565Z,2.53
2023-05-07T03:00:36.082Z,3.30
2023-05-07T03:03:05.904Z,3.00
2023-05-07T03:05:34.173Z,3.10
2023-05-07T03:08:02.612Z,3.40
2023-05-07T03:10:30.923Z,3.10
2023-05-07T03:12:59.289Z,2.73
2023-05-07T03:15:27.834Z,3.50
2023-05-07T03:17:56.158Z,3.00
2023-05-07T03:20:26.022Z,3.30
2023-05-07T03:22:54.505Z,3.37
2023-05-07T03:25:23.039Z,3.40
2023-05-07T03:27:51.383Z,3.00
2023-05-07T03:30:20.050Z,3.40
2023-05-07T03:32:48.527Z,3.20
2023-05-07T03:35:17.094Z,3.30
2023-05-07T03:37:46.911Z,3.47
2023-05-07T03:40:15.436Z,3.80
2023-05-07T03:42:43.956Z,3.37
2023-05-07T03:45:12.718Z,4.10
2023-05-07T03:47:41.180Z,3.60
2023-05-07T03:50:10.352Z,3.63
2023-05-07T03:52:38.916Z,3.30
2023-05-07T03:55:09.558Z,3.30
2023-05-07T03:57:37.929Z,3.43
2023-05-07T04:00:07.954Z,3.30
2023-05-07T04:02:36.567Z,3.50
2023-05-07T04:05:05.372Z,2.97
2023-05-07T04:07:33.699Z,3.97
2023-05-07T04:10:02.121Z,4.17
2023-05-07T04:12:32.109Z,3.77
2023-05-07T04:15:00.738Z,3.23
2023-05-07T04:17:29.122Z,4.03
2023-05-07T04:19:57.520Z,3.20
2023-05-07T04:22:25.914Z,3.00
2023-05-07T04:24:54.248Z,3.40
2023-05-07T04:27:22.927Z,4.13
2023-05-07T04:29:52.838Z,3.43
2023-05-07T04:32:21.173Z,3.07
2023-05-07T04:34:49.587Z,3.13
2023-05-07T04:37:18.159Z,3.57
2023-05-07T04:39:46.477Z,3.30
2023-05-07T04:42:18.088Z,3.20
2023-05-07T04:44:47.370Z,3.83
2023-05-07T04:47:17.176Z,3.73
2023-05-07T04:49:45.506Z,3.87
2023-05-07T04:52:13.972Z,4.17
2023-05-07T04:54:42.387Z,4.10
2023-05-07T04:57:10.729Z,3.83
2023-05-07T04:59:39.077Z,3.53
2023-05-07T05:02:07.687Z,3.87
2023-05-07T05:04:37.873Z,4.23
2023-05-07T05:07:06.424Z,4.07
2023-05-07T05:09:34.809Z,4.30
2023-05-07T05:12:03.291Z,4.17
2023-05-07T05:14:31.916Z,4.40
2023-05-07T05:17:00.229Z,4.47
2023-05-07T05:19:28.737Z,4.20
2023-05-07T05:21:58.483Z,3.70
2023-05-07T05:24:26.836Z,4.07
2023-05-07T05:26:56.252Z,4.17
2023-05-07T05:29:24.656Z,4.27
2023-05-07T05:31:53.302Z,4.10
2023-05-07T05:34:22.882Z,4.10
2023-05-07T05:36:51.316Z,4.07
2023-05-07T05:39:22.478Z,4.77
2023-05-07T05:41:50.905Z,4.30
2023-05-07T05:44:19.219Z,4.40
2023-05-07T05:46:47.652Z,3.67
2023-05-07T05:49:16.320Z,4.10
2023-05-07T05:51:45.020Z,3.70
2023-05-07T05:54:13.336Z,3.83
2023-05-07T05:56:43.861Z,4.47
2023-05-07T05:59:12.782Z,4.50
2023-05-07T06:01:41.466Z,4.43
2023-05-07T06:04:09.852Z,4.33
2023-05-07T06:06:38.171Z,3.97
2023-05-07T06:09:06.629Z,4.67
2023-05-07T06:11:35.072Z,4.20
2023-05-07T06:14:05.116Z,3.77
2023-05-07T06:16:33.517Z,4.80
2023-05-07T06:19:01.898Z,4.10
2023-05-07T06:21:30.385Z,3.60
2023-05-07T06:23:58.730Z,4.87
2023-05-07T06:26:27.090Z,4.23
2023-05-07T06:28:55.389Z,4.57
2023-05-07T06:31:25.226Z,3.70
2023-05-07T06:33:55.229Z,4.30
2023-05-07T06:36:23.593Z,4.37
2023-05-07T06:38:51.898Z,4.70
2023-05-07T06:41:20.289Z,4.20
2023-05-07T06:43:48.599Z,3.43
2023-05-07T06:46:17.279Z,3.93
2023-05-07T06:48:47.463Z,4.90
2023-05-07T06:51:15.807Z,4.30
2023-05-07T06:53:44.145Z,4.23
2023-05-07T06:56:12.698Z,4.30
2023-05-07T06:58:41.112Z,4.67
2023-05-07T07:01:09.545Z,4.40
2023-05-07T07:03:37.893Z,4.20
2023-05-07T07:06:07.942Z,4.13
2023-05-07T07:08:36.675Z,3.97
2023-05-07T07:11:05.003Z,4.20
2023-05-07T07:13:33.471Z,5.10
2023-05-07T07:16:02.483Z,4.03
2023-05-07T07:18:30.949Z,4.20
2023-05-07T07:20:59.247Z,3.87
2023-05-07T07:23:29.023Z,4.20
2023-05-07T07:25:57.572Z,5.93
2023-05-07T07:28:25.865Z,3.93
2023-05-07T07:30:54.248Z,4.40
2023-05-07T07:33:22.587Z,3.90
2023-05-07T07:35:51.046Z,4.80
2023-05-07T07:38:19.577Z,4.30
2023-05-07T07:40:50.156Z,5.07
2023-05-07T07:43:18.667Z,4.70
2023-05-07T07:45:47.146Z,5.80
2023-05-07T07:48:15.789Z,4.93
2023-05-07T07:50:45.738Z,4.97
2023-05-07T07:53:14.605Z,4.40
2023-05-07T07:55:43.043Z,6.10
2023-05-07T07:58:13.091Z,6.40
2023-05-07T08:00:41.517Z,5.90
2023-05-07T08:03:12.166Z,6.07
2023-05-07T08:05:40.787Z,5.10
2023-05-07T08:08:09.147Z,5.00
2023-05-07T08:10:39.523Z,5.40
2023-05-07T08:13:08.396Z,5.00
2023-05-07T08:15:38.178Z,4.77
2023-05-07T08:18:06.764Z,4.97
2023-05-07T08:20:40.348Z,5.30
2023-05-07T08:23:09.049Z,5.07
2023-05-07T08:25:38.695Z,4.10
2023-05-07T08:28:09.176Z,4.30
2023-05-07T08:30:39.877Z,4.13
2023-05-07T08:33:08.586Z,3.73
2023-05-07T08:35:37.002Z,4.53
2023-05-07T08:38:05.495Z,4.30
2023-05-07T08:40:39.005Z,4.80
2023-05-07T08:43:08.718Z,3.67
2023-05-07T08:45:37.426Z,3.93
2023-05-07T08:48:12.306Z,4.43
2023-05-07T08:50:41.654Z,5.10
2023-05-07T08:53:10.119Z,4.27
2023-05-07T08:55:38.641Z,4.50
2023-05-07T08:58:06.968Z,4.37
2023-05-07T09:00:35.605Z,4.40
2023-05-07T09:03:04.055Z,4.03
2023-05-07T09:05:33.821Z,4.17
2023-05-07T09:08:02.505Z,3.77
2023-05-07T09:10:32.110Z,3.40
2023-05-07T09:13:00.506Z,3.80
2023-05-07T09:15:29.334Z,4.47
2023-05-07T09:18:03.269Z,3.80
2023-05-07T09:20:34.320Z,4.40
2023-05-07T09:23:02.658Z,3.70
2023-05-07T09:25:32.305Z,3.90
2023-05-07T09:28:01.332Z,3.90
2023-05-07T09:30:31.916Z,3.50
2023-05-07T09:33:01.473Z,3.90
2023-05-07T09:35:30.480Z,3.87
2023-05-07T09:38:04.306Z,3.73
2023-05-07T09:40:33.758Z,3.53
2023-05-07T09:43:12.875Z,3.93
2023-05-07T09:45:41.438Z,3.90
2023-05-07T09:48:11.223Z,4.13
2023-05-07T09:50:50.681Z,4.10
2023-05-07T09:53:20.832Z,3.90
2023-05-07T09:55:49.703Z,4.90
2023-05-07T09:58:21.002Z,4.30
2023-05-07T10:00:50.770Z,12.03
2023-05-07T10:03:21.110Z,6.10
2023-05-07T10:05:50.319Z,5.53
2023-05-07T10:08:21.080Z,17.97
2023-05-07T10:10:49.906Z,16.17
2023-05-07T10:13:19.694Z,19.87
2023-05-07T10:15:49.154Z,5.10
2023-05-07T10:18:19.176Z,49.00
2023-05-07T10:20:49.430Z,7.17
2023-05-07T10:23:25.762Z,4.90
2023-05-07T10:26:00.674Z,4.47
2023-05-07T10:28:35.327Z,4.40
2023-05-07T10:31:18.279Z,4.50
2023-05-07T10:33:49.343Z,4.40
2023-05-07T10:36:18.517Z,5.43
2023-05-07T10:38:48.508Z,4.80
2023-05-07T10:41:18.012Z,4.53
2023-05-07T10:43:48.051Z,4.90
2023-05-07T10:46:18.891Z,4.40
2023-05-07T10:49:09.291Z,4.30
2023-05-07T10:51:38.465Z,4.10
2023-05-07T10:54:26.605Z,4.60
2023-05-07T10:56:55.021Z,4.90
2023-05-07T11:00:31.420Z,4.70
2023-05-07T11:03:10.267Z,4.53
2023-05-07T11:05:39.210Z,4.80
2023-05-07T11:08:07.988Z,5.10
2023-05-07T11:10:57.328Z,4.60
2023-05-07T11:13:44.398Z,4.60
2023-05-07T11:16:24.126Z,5.00
2023-05-07T11:18:54.246Z,5.40
2023-05-07T11:21:41.126Z,5.67
2023-05-07T11:24:11.198Z,4.63
2023-05-07T11:26:51.779Z,4.80
2023-05-07T11:29:22.542Z,5.37
2023-05-07T11:31:52.793Z,5.13
2023-05-07T11:34:25.193Z,5.93
2023-05-07T11:36:54.239Z,5.00
2023-05-07T11:39:40.383Z,4.50
2023-05-07T11:42:27.816Z,4.83
2023-05-07T11:44:56.197Z,5.43
2023-05-07T11:47:24.808Z,5.00
2023-05-07T11:49:54.589Z,4.27
2023-05-07T11:52:24.806Z,4.40
2023-05-07T11:54:53.705Z,4.73
2023-05-07T11:57:23.730Z,4.40
2023-05-07T11:59:55.655Z,4.40
2023-05-07T12:02:26.091Z,4.70
2023-05-07T12:04:55.048Z,4.40
2023-05-07T12:07:23.873Z,4.70
2023-05-07T12:09:52.688Z,4.37
2023-05-07T12:12:22.460Z,4.60
2023-05-07T12:14:51.033Z,4.70
2023-05-07T12:17:19.946Z,4.27
2023-05-07T12:19:49.557Z,4.33
2023-05-07T12:22:18.174Z,4.50
2023-05-07T12:24:47.795Z,5.43
2023-05-07T12:27:16.699Z,4.30
2023-05-07T12:29:49.116Z,4.47
2023-05-07T12:32:20.537Z,4.00
2023-05-07T12:34:49.460Z,4.30
2023-05-07T12:37:18.376Z,4.63
2023-05-07T12:39:50.491Z,4.27
2023-05-07T12:42:24.598Z,4.87
2023-05-07T12:44:54.572Z,3.80
2023-05-07T12:47:23.453Z,3.87
2023-05-07T12:49:52.712Z,3.97
2023-05-07T12:52:21.153Z,4.40
2023-05-07T12:54:50.577Z,4.70
2023-05-07T12:57:22.818Z,4.00
2023-05-07T12:59:51.251Z,3.70
2023-05-07T13:02:21.186Z,3.67
2023-05-07T13:04:49.527Z,4.63
2023-05-07T13:07:17.814Z,3.63
2023-05-07T13:09:46.204Z,3.53
2023-05-07T13:12:14.732Z,3.90
2023-05-07T13:14:43.001Z,4.20
2023-05-07T13:17:11.434Z,3.67
2023-05-07T13:19:41.346Z,3.57
2023-05-07T13:22:09.740Z,3.60
2023-05-07T13:24:38.123Z,3.40
2023-05-07T13:27:06.734Z,5.40
2023-05-07T13:29:35.242Z,3.60
2023-05-07T13:32:03.650Z,4.03
2023-05-07T13:34:31.959Z,3.77
2023-05-07T13:37:02.114Z,3.53
2023-05-07T13:39:30.638Z,3.53
2023-05-07T13:41:59.029Z,3.17
2023-05-07T13:44:27.388Z,3.40
2023-05-07T13:46:56.175Z,4.10
2023-05-07T13:49:25.163Z,3.60
2023-05-07T13:51:53.653Z,3.70
2023-05-07T13:54:23.571Z,3.13
2023-05-07T13:56:51.835Z,3.30
2023-05-07T13:59:20.126Z,4.00
2023-05-07T14:01:49.102Z,3.77
2023-05-07T14:04:17.440Z,4.13
2023-05-07T14:06:46.346Z,4.10
2023-05-07T14:09:14.838Z,4.10
2023-05-07T14:11:44.846Z,4.60
2023-05-07T14:14:13.189Z,3.80
2023-05-07T14:16:41.546Z,3.60
2023-05-07T14:19:09.856Z,4.03
2023-05-07T14:21:38.177Z,4.03
2023-05-07T14:24:08.604Z,3.90
2023-05-07T14:26:37.066Z,3.83
2023-05-07T14:29:06.890Z,4.00
2023-05-07T14:31:35.576Z,3.97
2023-05-07T14:34:03.918Z,4.13
2023-05-07T14:36:32.888Z,4.20
2023-05-07T14:39:01.641Z,3.70
2023-05-07T14:41:29.981Z,4.10
2023-05-07T14:43:59.934Z,3.80
2023-05-07T14:46:29.895Z,3.87
2023-05-07T14:48:59.168Z,3.60
2023-05-07T14:51:29.266Z,3.57
2023-05-07T14:53:57.628Z,4.50
2023-05-07T14:56:26.177Z,4.63
2023-05-07T14:58:54.617Z,4.53
2023-05-07T15:01:23.394Z,4.97
2023-05-07T15:03:53.240Z,4.90
2023-05-07T15:06:21.633Z,4.83
2023-05-07T15:08:50.310Z,5.10
2023-05-07T15:11:18.848Z,6.37
2023-05-07T15:13:47.231Z,5.57
2023-05-07T15:16:15.809Z,5.00
2023-05-07T15:18:44.804Z,4.30
2023-05-07T15:21:14.556Z,5.47
2023-05-07T15:23:45.415Z,5.57
2023-05-07T15:26:13.785Z,4.13
2023-05-07T15:28:42.322Z,4.90
2023-05-07T15:31:10.743Z,5.60
2023-05-07T15:33:39.474Z,5.10
2023-05-07T15:36:08.386Z,5.37
2023-05-07T15:38:38.234Z,5.00
2023-05-07T15:41:06.529Z,5.27
2023-05-07T15:43:34.841Z,5.30
2023-05-07T15:46:03.305Z,5.37
2023-05-07T15:48:31.752Z,4.90
2023-05-07T15:51:01.323Z,5.33
2023-05-07T15:53:29.805Z,5.00
2023-05-07T15:55:59.590Z,16.13
2023-05-07T15:58:28.948Z,45.83
2023-05-07T16:00:57.486Z,8.20
2023-05-07T16:03:25.918Z,173.93
2023-05-07T16:05:54.571Z,12.53
2023-05-07T16:08:23.009Z,35.33
2023-05-07T16:10:51.392Z,22.60
2023-05-07T16:13:21.533Z,19.33
2023-05-07T16:15:49.951Z,6.10
2023-05-07T16:18:18.336Z,7.43
2023-05-07T16:20:47.613Z,7.47
2023-05-07T16:23:16.104Z,5.20
2023-05-07T16:25:44.663Z,4.97
2023-05-07T16:28:13.017Z,4.73
2023-05-07T16:30:44.086Z,5.10
2023-05-07T16:33:12.541Z,6.30
2023-05-07T16:35:40.958Z,5.97
2023-05-07T16:38:11.735Z,5.40
2023-05-07T16:40:40.460Z,5.33
2023-05-07T16:43:08.852Z,5.43
2023-05-07T16:45:37.298Z,5.63
2023-05-07T16:48:08.571Z,4.90
2023-05-07T16:50:37.041Z,5.03
2023-05-07T16:53:07.469Z,5.40
2023-05-07T16:55:39.011Z,4.93
2023-05-07T16:58:07.772Z,5.87
2023-05-07T17:00:49.274Z,4.97
2023-05-07T17:03:20.584Z,5.17
2023-05-07T17:05:49.065Z,5.73
2023-05-07T17:08:17.625Z,7.20
2023-05-07T17:10:46.181Z,7.53
2023-05-07T17:13:14.779Z,6.70
2023-05-07T17:15:43.731Z,6.07
2023-05-07T17:18:12.421Z,5.43
2023-05-07T17:20:42.149Z,5.30
2023-05-07T17:23:10.474Z,4.80
2023-05-07T17:25:39.277Z,5.70
2023-05-07T17:28:07.549Z,5.60
2023-05-07T17:30:35.883Z,5.70
2023-05-07T17:33:19.333Z,5.13
2023-05-07T17:35:51.050Z,5.63
2023-05-07T17:38:19.518Z,5.80
2023-05-07T17:40:48.545Z,5.37
2023-05-07T17:43:17.011Z,5.77
2023-05-07T17:45:45.626Z,4.50
2023-05-07T17:48:14.011Z,4.90
2023-05-07T17:50:42.645Z,4.90
2023-05-07T17:53:12.424Z,5.27
2023-05-07T17:55:43.988Z,5.67
2023-05-07T17:58:12.609Z,5.17
2023-05-07T18:00:41.189Z,5.77
2023-05-07T18:03:09.725Z,5.90
2023-05-07T18:05:39.869Z,5.50
2023-05-07T18:08:08.479Z,6.20
2023-05-07T18:10:40.187Z,6.70
2023-05-07T18:13:08.637Z,6.47
2023-05-07T18:15:37.039Z,6.43
2023-05-07T18:18:05.841Z,6.07
2023-05-07T18:20:34.269Z,6.20
2023-05-07T18:23:02.623Z,6.53
2023-05-07T18:25:31.041Z,6.10
2023-05-07T18:28:00.875Z,6.63
2023-05-07T18:30:29.312Z,7.50
2023-05-07T18:32:57.820Z,7.17
2023-05-07T18:35:26.161Z,6.93
2023-05-07T18:37:54.517Z,7.97
2023-05-07T18:40:22.877Z,6.03
2023-05-07T18:42:51.300Z,7.40
2023-05-07T18:45:21.171Z,6.90
2023-05-07T18:47:49.773Z,7.90
2023-05-07T18:50:18.099Z,6.70
2023-05-07T18:52:46.554Z,5.60
2023-05-07T18:55:14.921Z,6.93
2023-05-07T18:57:44.955Z,7.17
2023-05-07T19:00:14.928Z,6.77
2023-05-07T19:02:44.923Z,6.53
2023-05-07T19:05:13.436Z,7.60
2023-05-07T19:07:41.753Z,6.77
2023-05-07T19:10:11.023Z,8.00
2023-05-07T19:12:39.443Z,7.60
2023-05-07T19:15:08.857Z,7.60
2023-05-07T19:17:37.261Z,7.23
2023-05-07T19:20:08.497Z,6.50
2023-05-07T19:22:36.937Z,7.03
2023-05-07T19:25:05.928Z,5.90
2023-05-07T19:27:34.345Z,6.57
2023-05-07T19:30:03.940Z,6.80
2023-05-07T19:32:32.488Z,8.17
2023-05-07T19:35:00.926Z,49.03
2023-05-07T19:37:30.916Z,85.37
2023-05-07T19:40:05.007Z,176.63
2023-05-07T19:42:33.839Z,141.60
2023-05-07T19:45:04.243Z,314.23
2023-05-07T19:47:32.819Z,104.30
2023-05-07T19:50:01.656Z,45.63
2023-05-07T19:52:31.361Z,52.50
2023-05-07T19:54:59.675Z,10.13
2023-05-07T19:57:28.027Z,8.40
2023-05-07T19:59:56.621Z,12.37
2023-05-07T20:02:25.109Z,8.77
2023-05-07T20:04:55.206Z,6.97
2023-05-07T20:07:23.604Z,7.10
2023-05-07T20:09:53.350Z,7.27
2023-05-07T20:12:22.348Z,7.20
2023-05-07T20:14:50.652Z,7.00
2023-05-07T20:17:19.859Z,7.20
2023-05-07T20:19:48.342Z,7.27
2023-05-07T20:22:16.694Z,7.07
2023-05-07T20:24:45.015Z,7.50
2023-05-07T20:27:16.072Z,7.00
2023-05-07T20:29:44.468Z,6.27
2023-05-07T20:32:15.250Z,6.37
2023-05-07T20:34:43.587Z,6.80
2023-05-07T20:37:14.444Z,5.97
2023-05-07T20:39:42.954Z,7.20
2023-05-07T20:42:11.761Z,7.10
2023-05-07T20:44:41.507Z,7.00
2023-05-07T20:47:10.426Z,7.70
2023-05-07T20:49:38.796Z,6.50
2023-05-07T20:52:07.360Z,6.97
2023-05-07T20:54:40.212Z,7.43
2023-05-07T20:57:08.671Z,7.07
2023-05-07T20:59:40.242Z,6.60
2023-05-07T21:02:10.281Z,6.90
2023-05-07T21:04:38.713Z,6.90
2023-05-07T21:07:07.180Z,6.10
2023-05-07T21:09:35.834Z,6.00
2023-05-07T21:12:04.509Z,7.20
2023-05-07T21:14:33.522Z,6.80
2023-05-07T21:17:02.126Z,6.77
2023-05-07T21:19:32.100Z,7.20
2023-05-07T21:22:01.170Z,7.23
2023-05-07T21:24:29.722Z,7.70
2023-05-07T21:26:58.935Z,6.83
2023-05-07T21:29:27.422Z,7.80
2023-05-07T21:31:55.831Z,6.70
2023-05-07T21:34:24.385Z,6.00
2023-05-07T21:36:54.272Z,8.50
2023-05-07T21:39:25.202Z,5.30
2023-05-07T21:41:53.836Z,5.50
2023-05-07T21:44:22.301Z,5.60
2023-05-07T21:46:50.738Z,5.40
2023-05-07T21:49:19.490Z,5.47
2023-05-07T21:51:47.953Z,5.30
2023-05-07T21:54:17.881Z,6.20
2023-05-07T21:56:47.648Z,5.50
2023-05-07T21:59:17.328Z,5.37
2023-05-07T22:01:46.053Z,5.83
2023-05-07T22:04:14.520Z,5.20
2023-05-07T22:06:42.910Z,4.93
2023-05-07T22:09:11.984Z,6.07
2023-05-07T22:11:42.035Z,4.60
2023-05-07T22:14:10.749Z,5.53
2023-05-07T22:16:40.061Z,5.47
2023-05-07T22:19:08.983Z,5.50
2023-05-07T22:21:37.418Z,5.27
2023-05-07T22:24:07.389Z,5.00
2023-05-07T22:26:35.888Z,6.00
2023-05-07T22:29:06.215Z,4.50
2023-05-07T22:31:34.633Z,5.60
2023-05-07T22:34:03.114Z,5.00
2023-05-07T22:36:31.632Z,5.43
2023-05-07T22:39:00.992Z,4.33
2023-05-07T22:41:29.730Z,4.60
2023-05-07T22:43:59.187Z,4.63
2023-05-07T22:46:29.174Z,5.63
2023-05-07T22:48:57.552Z,4.90
2023-05-07T22:51:26.221Z,5.47
2023-05-07T22:53:54.747Z,5.20
2023-05-07T22:56:23.148Z,4.90
2023-05-07T22:58:51.590Z,4.70
2023-05-07T23:01:20.164Z,4.87
2023-05-07T23:03:50.055Z,4.97
2023-05-07T23:06:18.374Z,5.57
2023-05-07T23:08:46.814Z,4.80
2023-05-07T23:11:15.314Z,4.70
2023-05-07T23:13:43.624Z,4.43
2023-05-07T23:16:12.066Z,4.30
2023-05-07T23:18:40.530Z,4.20
2023-05-07T23:21:10.276Z,4.90
2023-05-07T23:23:38.604Z,4.17
2023-05-07T23:26:07.159Z,4.40
2023-05-07T23:28:35.574Z,5.00
2023-05-07T23:31:03.933Z,4.63
2023-05-07T23:33:32.427Z,5.27
2023-05-07T23:36:01.360Z,4.40
2023-05-07T23:38:31.196Z,4.40
2023-05-07T23:40:59.625Z,4.13
2023-05-07T23:43:28.026Z,4.80
2023-05-07T23:45:56.472Z,4.50
2023-05-07T23:48:24.788Z,4.40
2023-05-07T23:50:53.149Z,5.77
2023-05-07T23:53:21.721Z,4.20
2023-05-07T23:55:52.941Z,4.50
2023-05-07T23:58:21.376Z,4.80
